DEVICE NETWORK
Gateway Status
13 ESP · realtime ~1s · history 60s
Weather
WS-MOD-01
ONLINE
Actuator
ACT-MOD-01
OFFLINE
Mainboard L3
MB-L3-01
ONLINE
Mainboard L5
MB-L5-01
ONLINE
Remote AC
AC-REMOTE-01
ONLINE
PZEM L3-01
PWR-L3-01
OFFLINE
PZEM L3-02
PWR-L3-02
OFFLINE
PZEM L3-03
PWR-L3-03
OFFLINE
PZEM L3-04
PWR-L3-04
OFFLINE
PZEM L5-01
PWR-L5-01
ONLINE
PZEM L5-02
PWR-L5-02
ONLINE
PZEM L5-03
PWR-L5-03
OFFLINE
PZEM L5-04
PWR-L5-04
OFFLINE
REPORT FILTER
DATABASE HISTORY
Periode & Sensor
REPORT RESULT
Data Sensor
02/09/2026 — 02/09/2026
EXPORT CSV
| NO | TANGGAL | WAKTU | DEVICE | CHANNEL | SENSOR | VALUE | UNIT |
|---|---|---|---|---|---|---|---|
| 13101 | 02/09/2026 | 14:53:58 | MB-L3-01Mainboard Lantai 3 | L3-LUX-02 | Illuminance / LUX 2 | 33.00 | lux |
| 13102 | 02/09/2026 | 14:53:58 | MB-L3-01Mainboard Lantai 3 | L3-SHT-01-RH | SHT20 1 Humidity | 48.30 | %RH |
| 13103 | 02/09/2026 | 14:53:58 | MB-L3-01Mainboard Lantai 3 | L3-AI-03 | Analog Input 3 | 3.12 | V |
| 13104 | 02/09/2026 | 14:53:58 | MB-L5-01Mainboard Lantai 5 | L5-LUX-02 | Illuminance / LUX 2 | 213.90 | lux |
| 13105 | 02/09/2026 | 14:53:58 | MB-L5-01Mainboard Lantai 5 | L5-ST-01 | Surface Temperature 1 | 30.30 | °C |
| 13106 | 02/09/2026 | 14:53:58 | MB-L3-01Mainboard Lantai 3 | L3-SHT-02-RH | SHT20 2 Humidity | 48.40 | %RH |
| 13107 | 02/09/2026 | 14:53:58 | MB-L3-01Mainboard Lantai 3 | L3-BGT-01 | Black Globe Temperature 1 | 30.00 | °C |
| 13108 | 02/09/2026 | 14:53:58 | MB-L5-01Mainboard Lantai 5 | L5-RAD-02 | Radiation 2 | 2.00 | W/m² |
| 13109 | 02/09/2026 | 14:53:58 | MB-L3-01Mainboard Lantai 3 | L3-LUX-01 | Illuminance / LUX 1 | 20.30 | lux |
| 13110 | 02/09/2026 | 14:53:58 | MB-L3-01Mainboard Lantai 3 | L3-RAD-02 | Radiation 2 | 2.00 | W/m² |
| 13111 | 02/09/2026 | 14:53:58 | MB-L5-01Mainboard Lantai 5 | L5-AI-06 | Analog Input 6 | 3.05 | V |
| 13112 | 02/09/2026 | 14:53:58 | MB-L3-01Mainboard Lantai 3 | L3-LUX-03 | Illuminance / LUX 3 | 78.80 | lux |
| 13113 | 02/09/2026 | 14:53:58 | MB-L5-01Mainboard Lantai 5 | L5-SHT-02-RH | SHT20 2 Humidity | 48.10 | %RH |
| 13114 | 02/09/2026 | 14:53:58 | MB-L3-01Mainboard Lantai 3 | L3-AI-04 | Analog Input 4 | 3.12 | V |
| 13115 | 02/09/2026 | 14:53:58 | MB-L5-01Mainboard Lantai 5 | L5-LUX-04 | Illuminance / LUX 4 | 177.70 | lux |
| 13116 | 02/09/2026 | 14:53:58 | MB-L3-01Mainboard Lantai 3 | L3-BGT-02 | Black Globe Temperature 2 | 29.90 | °C |
| 13117 | 02/09/2026 | 14:53:58 | MB-L3-01Mainboard Lantai 3 | L3-RAD-01 | Radiation 1 | 2.00 | W/m² |
| 13118 | 02/09/2026 | 14:53:58 | MB-L5-01Mainboard Lantai 5 | L5-AI-05 | Analog Input 5 | 3.05 | V |
| 13119 | 02/09/2026 | 14:53:58 | MB-L5-01Mainboard Lantai 5 | L5-SHT-03-T | SHT20 3 Temperature | 32.30 | °C |
| 13120 | 02/09/2026 | 14:53:58 | MB-L5-01Mainboard Lantai 5 | L5-SHT-01-T | SHT20 1 Temperature | 32.30 | °C |
| 13121 | 02/09/2026 | 14:53:58 | MB-L3-01Mainboard Lantai 3 | L3-SHT-03-RH | SHT20 3 Humidity | 49.10 | %RH |
| 13122 | 02/09/2026 | 14:53:58 | MB-L5-01Mainboard Lantai 5 | L5-SHT-02-T | SHT20 2 Temperature | 32.30 | °C |
| 13123 | 02/09/2026 | 14:53:58 | MB-L5-01Mainboard Lantai 5 | L5-SHT-03-RH | SHT20 3 Humidity | 48.50 | %RH |
| 13124 | 02/09/2026 | 14:53:58 | MB-L5-01Mainboard Lantai 5 | L5-AI-04 | Analog Input 4 | 3.05 | V |
| 13125 | 02/09/2026 | 14:53:58 | MB-L3-01Mainboard Lantai 3 | L3-ST-01 | Surface Temperature 1 | 30.10 | °C |
| 13126 | 02/09/2026 | 14:53:58 | MB-L3-01Mainboard Lantai 3 | L3-AI-05 | Analog Input 5 | 3.12 | V |
| 13127 | 02/09/2026 | 14:53:58 | MB-L3-01Mainboard Lantai 3 | L3-SHT-03-T | SHT20 3 Temperature | 31.80 | °C |
| 13128 | 02/09/2026 | 14:53:58 | MB-L5-01Mainboard Lantai 5 | L5-RAD-01 | Radiation 1 | 2.00 | W/m² |
| 13129 | 02/09/2026 | 14:53:58 | MB-L5-01Mainboard Lantai 5 | L5-AI-03 | Analog Input 3 | 3.05 | V |
| 13130 | 02/09/2026 | 14:53:58 | MB-L3-01Mainboard Lantai 3 | L3-SHT-02-T | SHT20 2 Temperature | 32.00 | °C |
| 13131 | 02/09/2026 | 14:53:58 | MB-L5-01Mainboard Lantai 5 | L5-AI-02 | Analog Input 2 | 3.05 | V |
| 13132 | 02/09/2026 | 14:53:58 | MB-L3-01Mainboard Lantai 3 | L3-BGT-03 | Black Globe Temperature 3 | 29.40 | °C |
| 13133 | 02/09/2026 | 14:53:58 | MB-L5-01Mainboard Lantai 5 | L5-AI-01 | Analog Input 1 | 3.05 | V |
| 13134 | 02/09/2026 | 14:53:58 | MB-L3-01Mainboard Lantai 3 | L3-ST-02 | Surface Temperature 2 | 30.30 | °C |
| 13135 | 02/09/2026 | 14:53:58 | MB-L3-01Mainboard Lantai 3 | L3-AI-06 | Analog Input 6 | 3.12 | V |
| 13136 | 02/09/2026 | 14:53:58 | MB-L3-01Mainboard Lantai 3 | L3-LUX-06 | Illuminance / LUX 6 | 24.70 | lux |
| 13137 | 02/09/2026 | 14:53:58 | MB-L3-01Mainboard Lantai 3 | L3-AI-01 | Analog Input 1 | 3.12 | V |
| 13138 | 02/09/2026 | 14:53:58 | MB-L5-01Mainboard Lantai 5 | L5-BGT-03 | Black Globe Temperature 3 | 29.80 | °C |
| 13139 | 02/09/2026 | 14:53:58 | MB-L3-01Mainboard Lantai 3 | L3-HFT-01 | Heat Flow Temperature 1 | 29.70 | °C |
| 13140 | 02/09/2026 | 14:53:58 | MB-L5-01Mainboard Lantai 5 | L5-LUX-03 | Illuminance / LUX 3 | 141.20 | lux |
| 13141 | 02/09/2026 | 14:53:58 | MB-L5-01Mainboard Lantai 5 | L5-BGT-02 | Black Globe Temperature 2 | 29.70 | °C |
| 13142 | 02/09/2026 | 14:53:58 | MB-L5-01Mainboard Lantai 5 | L5-BGT-01 | Black Globe Temperature 1 | 29.80 | °C |
| 13143 | 02/09/2026 | 14:53:58 | MB-L3-01Mainboard Lantai 3 | L3-LUX-05 | Illuminance / LUX 5 | 32.90 | lux |
| 13144 | 02/09/2026 | 14:53:58 | MB-L3-01Mainboard Lantai 3 | L3-AI-02 | Analog Input 2 | 3.12 | V |
| 13145 | 02/09/2026 | 14:53:58 | MB-L3-01Mainboard Lantai 3 | L3-LUX-04 | Illuminance / LUX 4 | 63.00 | lux |
| 13146 | 02/09/2026 | 14:53:58 | MB-L5-01Mainboard Lantai 5 | L5-HFT-02 | Heat Flow Temperature 2 | 30.10 | °C |
| 13147 | 02/09/2026 | 14:53:58 | MB-L5-01Mainboard Lantai 5 | L5-SHT-01-RH | SHT20 1 Humidity | 48.30 | %RH |
| 13148 | 02/09/2026 | 14:53:58 | MB-L3-01Mainboard Lantai 3 | L3-HFT-02 | Heat Flow Temperature 2 | 29.30 | °C |
| 13149 | 02/09/2026 | 14:53:58 | MB-L3-01Mainboard Lantai 3 | L3-SHT-01-T | SHT20 1 Temperature | 32.20 | °C |
| 13150 | 02/09/2026 | 14:53:58 | MB-L5-01Mainboard Lantai 5 | L5-HFT-01 | Heat Flow Temperature 1 | 30.30 | °C |
| 13151 | 02/09/2026 | 14:53:56 | MB-L5-01Mainboard Lantai 5 | L5-AI-06 | Analog Input 6 | 3.05 | V |
| 13152 | 02/09/2026 | 14:53:56 | MB-L3-01Mainboard Lantai 3 | L3-LUX-03 | Illuminance / LUX 3 | 115.90 | lux |
| 13153 | 02/09/2026 | 14:53:56 | MB-L5-01Mainboard Lantai 5 | L5-SHT-02-RH | SHT20 2 Humidity | 48.10 | %RH |
| 13154 | 02/09/2026 | 14:53:56 | MB-L3-01Mainboard Lantai 3 | L3-AI-04 | Analog Input 4 | 3.12 | V |
| 13155 | 02/09/2026 | 14:53:56 | MB-L5-01Mainboard Lantai 5 | L5-LUX-05 | Illuminance / LUX 5 | 330.00 | lux |
| 13156 | 02/09/2026 | 14:53:56 | MB-L5-01Mainboard Lantai 5 | L5-LUX-04 | Illuminance / LUX 4 | 177.70 | lux |
| 13157 | 02/09/2026 | 14:53:56 | MB-L3-01Mainboard Lantai 3 | L3-BGT-02 | Black Globe Temperature 2 | 30.00 | °C |
| 13158 | 02/09/2026 | 14:53:56 | MB-L3-01Mainboard Lantai 3 | L3-RAD-01 | Radiation 1 | 2.00 | W/m² |
| 13159 | 02/09/2026 | 14:53:56 | MB-L5-01Mainboard Lantai 5 | L5-AI-05 | Analog Input 5 | 3.05 | V |
| 13160 | 02/09/2026 | 14:53:56 | MB-L5-01Mainboard Lantai 5 | L5-SHT-03-T | SHT20 3 Temperature | 32.30 | °C |
| 13161 | 02/09/2026 | 14:53:56 | MB-L5-01Mainboard Lantai 5 | L5-SHT-01-T | SHT20 1 Temperature | 32.30 | °C |
| 13162 | 02/09/2026 | 14:53:56 | MB-L3-01Mainboard Lantai 3 | L3-SHT-03-RH | SHT20 3 Humidity | 49.00 | %RH |
| 13163 | 02/09/2026 | 14:53:56 | MB-L5-01Mainboard Lantai 5 | L5-SHT-02-T | SHT20 2 Temperature | 32.30 | °C |
| 13164 | 02/09/2026 | 14:53:56 | MB-L5-01Mainboard Lantai 5 | L5-SHT-03-RH | SHT20 3 Humidity | 48.50 | %RH |
| 13165 | 02/09/2026 | 14:53:56 | MB-L5-01Mainboard Lantai 5 | L5-AI-04 | Analog Input 4 | 3.05 | V |
| 13166 | 02/09/2026 | 14:53:56 | MB-L3-01Mainboard Lantai 3 | L3-ST-01 | Surface Temperature 1 | 30.00 | °C |
| 13167 | 02/09/2026 | 14:53:56 | MB-L3-01Mainboard Lantai 3 | L3-AI-05 | Analog Input 5 | 3.12 | V |
| 13168 | 02/09/2026 | 14:53:56 | MB-L3-01Mainboard Lantai 3 | L3-SHT-03-T | SHT20 3 Temperature | 31.80 | °C |
| 13169 | 02/09/2026 | 14:53:56 | MB-L5-01Mainboard Lantai 5 | L5-RAD-01 | Radiation 1 | 2.00 | W/m² |
| 13170 | 02/09/2026 | 14:53:56 | MB-L5-01Mainboard Lantai 5 | L5-AI-03 | Analog Input 3 | 3.05 | V |
| 13171 | 02/09/2026 | 14:53:56 | MB-L3-01Mainboard Lantai 3 | L3-SHT-02-T | SHT20 2 Temperature | 32.10 | °C |
| 13172 | 02/09/2026 | 14:53:56 | MB-L5-01Mainboard Lantai 5 | L5-AI-02 | Analog Input 2 | 3.05 | V |
| 13173 | 02/09/2026 | 14:53:56 | MB-L3-01Mainboard Lantai 3 | L3-BGT-03 | Black Globe Temperature 3 | 29.40 | °C |
| 13174 | 02/09/2026 | 14:53:56 | MB-L5-01Mainboard Lantai 5 | L5-AI-01 | Analog Input 1 | 3.05 | V |
| 13175 | 02/09/2026 | 14:53:56 | MB-L3-01Mainboard Lantai 3 | L3-ST-02 | Surface Temperature 2 | 30.30 | °C |
| 13176 | 02/09/2026 | 14:53:56 | MB-L3-01Mainboard Lantai 3 | L3-AI-06 | Analog Input 6 | 3.12 | V |
| 13177 | 02/09/2026 | 14:53:56 | MB-L3-01Mainboard Lantai 3 | L3-LUX-06 | Illuminance / LUX 6 | 27.20 | lux |
| 13178 | 02/09/2026 | 14:53:56 | MB-L3-01Mainboard Lantai 3 | L3-AI-01 | Analog Input 1 | 3.12 | V |
| 13179 | 02/09/2026 | 14:53:56 | MB-L5-01Mainboard Lantai 5 | L5-BGT-03 | Black Globe Temperature 3 | 29.90 | °C |
| 13180 | 02/09/2026 | 14:53:56 | MB-L3-01Mainboard Lantai 3 | L3-HFT-01 | Heat Flow Temperature 1 | 29.70 | °C |
| 13181 | 02/09/2026 | 14:53:56 | MB-L5-01Mainboard Lantai 5 | L5-LUX-03 | Illuminance / LUX 3 | 141.20 | lux |
| 13182 | 02/09/2026 | 14:53:56 | MB-L5-01Mainboard Lantai 5 | L5-BGT-02 | Black Globe Temperature 2 | 29.80 | °C |
| 13183 | 02/09/2026 | 14:53:56 | MB-L5-01Mainboard Lantai 5 | L5-BGT-01 | Black Globe Temperature 1 | 29.80 | °C |
| 13184 | 02/09/2026 | 14:53:56 | MB-L3-01Mainboard Lantai 3 | L3-LUX-05 | Illuminance / LUX 5 | 39.20 | lux |
| 13185 | 02/09/2026 | 14:53:56 | MB-L3-01Mainboard Lantai 3 | L3-AI-02 | Analog Input 2 | 3.12 | V |
| 13186 | 02/09/2026 | 14:53:56 | MB-L3-01Mainboard Lantai 3 | L3-LUX-04 | Illuminance / LUX 4 | 68.40 | lux |
| 13187 | 02/09/2026 | 14:53:56 | MB-L5-01Mainboard Lantai 5 | L5-HFT-02 | Heat Flow Temperature 2 | 30.10 | °C |
| 13188 | 02/09/2026 | 14:53:56 | MB-L5-01Mainboard Lantai 5 | L5-SHT-01-RH | SHT20 1 Humidity | 48.20 | %RH |
| 13189 | 02/09/2026 | 14:53:56 | MB-L3-01Mainboard Lantai 3 | L3-HFT-02 | Heat Flow Temperature 2 | 29.20 | °C |
| 13190 | 02/09/2026 | 14:53:56 | MB-L3-01Mainboard Lantai 3 | L3-SHT-01-T | SHT20 1 Temperature | 32.10 | °C |
| 13191 | 02/09/2026 | 14:53:56 | MB-L5-01Mainboard Lantai 5 | L5-HFT-01 | Heat Flow Temperature 1 | 30.20 | °C |
| 13192 | 02/09/2026 | 14:53:56 | MB-L5-01Mainboard Lantai 5 | L5-LUX-01 | Illuminance / LUX 1 | 201.50 | lux |
| 13193 | 02/09/2026 | 14:53:56 | MB-L5-01Mainboard Lantai 5 | L5-LUX-06 | Illuminance / LUX 6 | 188.30 | lux |
| 13194 | 02/09/2026 | 14:53:56 | MB-L5-01Mainboard Lantai 5 | L5-ST-02 | Surface Temperature 2 | 30.40 | °C |
| 13195 | 02/09/2026 | 14:53:56 | MB-L3-01Mainboard Lantai 3 | L3-LUX-02 | Illuminance / LUX 2 | 33.90 | lux |
| 13196 | 02/09/2026 | 14:53:56 | MB-L3-01Mainboard Lantai 3 | L3-SHT-01-RH | SHT20 1 Humidity | 48.20 | %RH |
| 13197 | 02/09/2026 | 14:53:56 | MB-L3-01Mainboard Lantai 3 | L3-AI-03 | Analog Input 3 | 3.12 | V |
| 13198 | 02/09/2026 | 14:53:56 | MB-L5-01Mainboard Lantai 5 | L5-LUX-02 | Illuminance / LUX 2 | 213.90 | lux |
| 13199 | 02/09/2026 | 14:53:56 | MB-L5-01Mainboard Lantai 5 | L5-ST-01 | Surface Temperature 1 | 30.20 | °C |
| 13200 | 02/09/2026 | 14:53:56 | MB-L3-01Mainboard Lantai 3 | L3-SHT-02-RH | SHT20 2 Humidity | 48.10 | %RH |
Menampilkan maksimal 100 data per halaman